This is the latest recevied weather packets stored in our database for station/object N2XP-2. If no packets are shown the sender has not sent any weather packets the latest 10 day(s).
| Time | Temp. | Humidity | Pressure | Rain* | Wind** | Luminosity | Snow |
|---|---|---|---|---|---|---|---|
| 1778047487 | 17.78° C | 82% | 1011.2 hPa | 0 mm | 1.79 m/s, 203° | - | - |
| 1778047188 | 17.78° C | 82% | 1011.3 hPa | 0 mm | 2.68 m/s, 152° | - | - |
| 1778046885 | 17.78° C | 82% | 1011.4 hPa | 0 mm | 1.79 m/s, 290° | - | - |
| 1778046586 | 17.78° C | 82% | 1011.5 hPa | 0 mm | 1.34 m/s, 188° | - | - |
| 1778046287 | 17.78° C | 81% | 1011.5 hPa | 0.51 mm | 1.34 m/s, 249° | - | - |
| 1778045984 | 17.78° C | 81% | 1011.5 hPa | 0.51 mm | 1.34 m/s, 270° | - | - |
| 1778045895 | 17.78° C | 80% | 1011.7 hPa | 0.51 mm | 1.34 m/s, 210° | - | - |
| 1778045888 | 18.33° C | 79% | 1011.8 hPa | 0.51 mm | 1.34 m/s, 186° | - | - |
| 1778045685 | 17.78° C | 81% | 1011.5 hPa | 0.51 mm | 1.79 m/s, 190° | - | - |
| 1778045386 | 17.78° C | 81% | 1011.5 hPa | 0.51 mm | 1.79 m/s, 167° | - | - |
| 1778045083 | 17.78° C | 80% | 1011.6 hPa | 0.51 mm | 0.89 m/s, 304° | - | - |
| 1778044547 | 17.78° C | 80% | 1011.7 hPa | 0.51 mm | 1.34 m/s, 210° | - | - |
| 1778044485 | 17.78° C | 80% | 1011.7 hPa | 0.51 mm | 1.34 m/s, 210° | - | - |
| 1778044182 | 18.33° C | 79% | 1011.8 hPa | 0.51 mm | 1.34 m/s, 186° | - | - |
| 1778044045 | 18.33° C | 78% | 1011.9 hPa | 0.51 mm | 1.34 m/s, 218° | - | - |
| 1778044045 | 18.33° C | 78% | 1011.8 hPa | 1.78 mm | 0.89 m/s, 246° | - | - |
| 1778044045 | 18.33° C | 79% | 1011.8 hPa | 0.51 mm | 1.79 m/s, 184° | - | - |
| 1778043981 | 18.33° C | 78% | 1011.9 hPa | 0.51 mm | 1.34 m/s, 218° | - | - |
| 1778043975 | 18.33° C | 78% | 1011.8 hPa | 1.78 mm | 0.89 m/s, 246° | - | - |
| 1778043882 | 18.33° C | 79% | 1011.8 hPa | 0.51 mm | 1.79 m/s, 184° | - | - |
| 1778043630 | 18.33° C | 79% | 1011.8 hPa | 0.51 mm | 1.79 m/s, 172° | - | - |
| 1778043583 | 18.33° C | 79% | 1011.8 hPa | 0.51 mm | 1.79 m/s, 172° | - | - |
| 1778043366 | 18.33° C | 78% | 1011.9 hPa | 0.51 mm | 1.34 m/s, 177° | - | - |
| 1778043280 | 18.33° C | 78% | 1011.9 hPa | 0.51 mm | 1.34 m/s, 177° | - | - |
| 1778043048 | 18.33° C | 78% | 1011.9 hPa | 0.51 mm | 1.34 m/s, 218° | - | - |
* Rain latest hour (hover to see other rain measurements)
** Current wind speed in m/s (hover to see current wind gust speed)